Etusivu
METAR-TAF:

METAR-TAF

Lentoasemat :

Río Cuarto, Argentiina

Leveyspiiri: 33-07S, Pituuspiiri: 064-14W, korkeus merenpinnasta: 420 m

Tämänhetkinen sää

Tämä raportti tehtiin 34 minuuttia sitten, kello 06.00 UTC
Tuuli 15 kn pohjoisesta/koillisesta
Lämpötila 11°C
Kosteus 94%
Ilmanpaine 1019 hPa
Näkyvyys: 5000 m
Muutamia pilviä 2000 ft:n korkeudessa
Pilvistä 4500 ft:n korkeudessa
heikkoa sadetta

METAR: SAOC 220600Z 02015KT 5000 -RA FEW020 OVC045 11/10 Q1019

Aika: 03:34 (06:34 UTC)


TAF: puuttuu

Säähavainnot ja -ennusteet yli 4000 lentoasemalta (METAR- ja TAF-raportit).

Käytössä olevat sääasemat on merkitty karttaan keltaisilla ja punaisilla pisteillä.

Aseta hiiri pisteen päälle nähdäksesi sääaseman nimen.

Klikkaa sitten nähdäksesi säähavainnot ja -ennusteet.

Kartan vaihtaminen: klikkaa mustalla rastilla varustettuja vihreitä pisteitä, niin voit zoomata sisään; viivalla varustettua vihreää pistettä, niin voit zoomata ulos tai vihreitä nuolia, niin pääset viereisille kartoille.


METAR-TAF: